Details From CYUL - Montreal Pierre E Trudeau Intl
To CYGP - Gaspe
Flight Number -
Tags Routegen Generated
Created
Modified
Stats Distance 434 nm / 803 km
Max Altitude 0 ft / 0 m
Waypoints 3
Social Downloads 3
Likes 0
Share VATSIM

Download

Looking for another format? Having issues loading an existing format? Contact us
Advertisement - Login to hide

Notes

Generated

Route

CYUL YGP CYGP

ID Type Via Altitude Latitude Longitude Leg Dist Tot Dist Heading (true) Name
O CYUL APT - 0 ft / 0 m 45.46250˚ -73.76500˚ - 0 nm - -
YGP VOR - 0 ft / 0 m 48.76317˚ -64.40481˚ 430 nm 430 nm 59° / 66° GASPE VOR-DME
O CYGP APT - 0 ft / 0 m 48.77463˚ -64.48789˚ 3 nm 433 nm 282° / 282° -

Altitude Profile

Advertisement - Login to hide

Weather


0- 5 10 15 20 25 30 35+ Temperature / ° C

Clouds and Precipitation
Forecast for 2018-05-23 18:00 UTC. Updated 4 hours ago

Ground ~20,000 ft ~40,000 ft Winds

CYUL

Details ICAO CYUL (YUL)
Name Montreal Pierre E Trudeau Intl
Region Canada
Timezone America/Montreal (UTC-4.0)
Stats Elevation 117 ft / 36 m (AMSL)
Location 45.467269° -73.744028°
Runways 3
Magnetic Variation 14.292° W

METAR

CYUL 232100Z 31013G21KT 15SM FEW040TCU BKN240 24/M01 A2990 RMK TCU1CI4 SLP127 DENSITY ALT 1200FT

Decode

TAF

TAF CYUL 232038Z 2321/2418 29010KT P6SM FEW030 BKN230 FM232300 32012KT P6SM BKN230 BECMG 2403/2405 34010KT BECMG 2409/2411 01008KT FM241500 20006KT P6SM BKN230 RMK NXT FCST BY 240000Z

Decode

Departure Runways

ID Width Length Bearing (true) Bearing (mag) Surface Threshold Offset Overrun Length
06L 200 ft / 61 m 11,020 ft / 3,359 m 42.62° 56.91° Asphalt 0 ft / 0 m 0 ft / 0 m
06R 200 ft / 61 m 9,706 ft / 2,958 m 41.23° 55.52° Asphalt 0 ft / 0 m 0 ft / 0 m
10 200 ft / 61 m 6,831 ft / 2,082 m 87.45° 101.74° Asphalt 0 ft / 0 m 0 ft / 0 m
24L 200 ft / 61 m 9,706 ft / 2,958 m 221.25° 235.54° Asphalt 0 ft / 0 m 0 ft / 0 m
24R 200 ft / 61 m 11,020 ft / 3,359 m 222.64° 236.93° Asphalt 0 ft / 0 m 0 ft / 0 m
28 200 ft / 61 m 6,831 ft / 2,082 m 267.47° 281.76° Asphalt 0 ft / 0 m 0 ft / 0 m

CYGP

Details ICAO CYGP (YGP)
Name GASPE
Region Canada
Timezone America/Montreal (UTC-4.0)
Stats Elevation 108 ft / 33 m (AMSL)
Location 48.775278° -64.478611°
Runways 1
Magnetic Variation 18.507° W

METAR

CYGP 232100Z 36007G15KT 320V030 15SM FEW080 BKN210 06/M04 A2994 RMK AC1CI4 SLP143

Decode

TAF

TAF CYGP 231941Z 2320/2408 35008KT P6SM FEW030 BECMG 2401/2403 21006KT FM240600 32005KT P6SM SCT040 RMK NXT FCST BY 240200Z

Decode

Destination Runways

ID Width Length Bearing (true) Bearing (mag) Surface Threshold Offset Overrun Length
11 150 ft / 46 m 4,488 ft / 1,368 m 83.95° 102.46° Asphalt 0 ft / 0 m 0 ft / 0 m
29 150 ft / 46 m 4,488 ft / 1,368 m 263.96° 282.47° Asphalt 0 ft / 0 m 0 ft / 0 m

Approach Navaids

Runway Type Ident Frequency Range Bearing (true) Bearing (mag) Slope Elevation
11 Localiser IGP 110.30 MHz 18 nm / 33 km 83.32° 101.83° - 108 ft / 33 m (AMSL)

Popular Alternatives